KARG

Details ICAO KARG
Name WALNUT RIDGE RGNL
Region United States
Timezone America/Chicago (UTC-5.0)
Plans Departing 3
Arriving 4
Stats Elevation 273 ft / 83 m (AMSL)
Location 36.125015° -90.925008°
Runways 3
Magnetic Variation 0.814° W
Sunrise 2018-05-22 10:54:10 UTC / 2018-05-22 05:54:10 Local
Sunset 2018-05-23 01:09:28 UTC / 2018-05-22 20:09:28 Local
Advertisement - Login to hide

Runways

ID Width Length Bearing (true) Bearing (mag) Surface Threshold Offset Overrun Length
04 150 ft / 46 m 6,002 ft / 1,829 m 44.92° 45.73° Concrete 0 ft / 0 m 0 ft / 0 m
13 150 ft / 46 m 5,004 ft / 1,525 m 135.15° 135.96° Concrete 0 ft / 0 m 0 ft / 0 m
18 150 ft / 46 m 5,014 ft / 1,528 m 180.03° 180.84° Concrete 0 ft / 0 m 0 ft / 0 m
22 150 ft / 46 m 6,002 ft / 1,829 m 224.93° 225.74° Concrete 0 ft / 0 m 0 ft / 0 m
31 150 ft / 46 m 5,004 ft / 1,525 m 315.16° 315.97° Concrete 0 ft / 0 m 0 ft / 0 m
36 150 ft / 46 m 5,014 ft / 1,528 m 0.03° 0.84° Concrete 0 ft / 0 m 0 ft / 0 m

Map

Weather


0- 5 10 15 20 25 30 35+ Temperature / ° C

Clouds and Precipitation
Forecast for 2018-05-22 18:00 UTC. Updated 39 minutes ago

Ground ~20,000 ft ~40,000 ft Winds

METAR

KARG 221656Z AUTO VRB03KT 10SM 28/22 A3006 RMK AO2 SLP178 T02830222 $

TAF

Not found

Frequencies

Recorded 135.92 MHz AWOS 3
Unicom 122.80 MHz CTAF/UNICOM
Warning: Do not use this data for real-world aviation or navigation. No guarantee of current accuracy is given.